Time;durP1;ratioP1;P1;durP2;ratioP2;P2;SDS_P1;SDS_P2;PMS_P1;PMS_P2;Temp;Humidity;BMP_temperature;BMP_pressure;BME280_temperature;BME280_humidity;BME280_pressure;Samples;Min_cycle;Max_cycle;Signal;HPM_P1;HPM_P2
2021/12/06 00:01:38;;;;;;;93.53;36.33;;;3.20;99.90;;;;;;5036573;28;20028;-71
2021/12/06 00:04:15;;;;;;;90.28;35.42;;;3.30;99.90;;;;;;5050804;28;20430;-71
2021/12/06 00:06:45;;;;;;;94.43;35.47;;;3.20;99.90;;;;;;5034281;28;20029;-70
2021/12/06 00:09:15;;;;;;;86.88;33.95;;;3.10;99.90;;;;;;5016171;28;20483;-72
2021/12/06 00:11:40;;;;;;;86.75;34.83;;;3.20;99.90;;;;;;5033841;28;20033;-72
2021/12/06 00:14:07;;;;;;;78.88;32.88;;;2.90;99.90;;;;;;5044166;28;20483;-72
2021/12/06 00:16:32;;;;;;;87.60;33.53;;;3.10;99.90;;;;;;5053689;28;20033;-71
2021/12/06 00:18:58;;;;;;;80.13;33.42;;;;;;;;;;5053652;28;20543;-72
2021/12/06 00:21:25;;;;;;;84.28;33.88;;;3.20;99.90;;;;;;5053683;28;20052;-73
2021/12/06 00:23:51;;;;;;;86.55;34.97;;;3.20;99.90;;;;;;5054243;28;20021;-73
2021/12/06 00:26:17;;;;;;;79.00;32.47;;;3.20;99.90;;;;;;5053669;28;20032;-71
2021/12/06 00:28:45;;;;;;;81.55;33.38;;;3.20;99.90;;;;;;5053674;28;20036;-72
2021/12/06 00:31:14;;;;;;;87.38;33.78;;;3.20;99.90;;;;;;5053857;28;20029;-72
2021/12/06 00:33:40;;;;;;;81.80;33.15;;;3.20;99.90;;;;;;5053029;28;20075;-71
2021/12/06 00:36:15;;;;;;;82.18;31.50;;;3.20;99.90;;;;;;5052773;28;20024;-71
2021/12/06 00:38:43;;;;;;;86.50;32.30;;;3.20;99.90;;;;;;5035698;28;20494;-72
2021/12/06 00:41:08;;;;;;;81.60;30.25;;;3.20;99.90;;;;;;5046094;28;20071;-71
2021/12/06 00:43:34;;;;;;;82.10;31.55;;;3.10;99.90;;;;;;5038466;28;20021;-73
2021/12/06 00:45:59;;;;;;;89.20;32.95;;;3.10;99.90;;;;;;5053251;28;20609;-72
2021/12/06 00:48:25;;;;;;;80.32;32.55;;;3.20;99.90;;;;;;5053324;28;20033;-72
2021/12/06 00:50:51;;;;;;;78.93;32.03;;;3.10;99.90;;;;;;5053152;28;20025;-70
2021/12/06 00:53:16;;;;;;;79.90;31.42;;;3.10;99.90;;;;;;5052755;28;20149;-72
2021/12/06 00:55:42;;;;;;;83.10;33.22;;;3.10;99.90;;;;;;5053014;28;20494;-73
2021/12/06 00:58:08;;;;;;;80.50;33.00;;;;;;;;;;5053025;28;20032;-73
2021/12/06 01:00:41;;;;;;;78.95;32.58;;;3.10;99.90;;;;;;5052532;28;20031;-71
2021/12/06 01:03:10;;;;;;;77.70;30.95;;;3.10;99.90;;;;;;5051989;28;20103;-73
2021/12/06 01:05:37;;;;;;;81.10;30.95;;;3.10;99.90;;;;;;5052968;28;20056;-74
2021/12/06 01:08:03;;;;;;;83.22;32.97;;;3.10;99.90;;;;;;5052404;28;20037;-74
2021/12/06 01:10:31;;;;;;;74.90;30.10;;;3.10;99.90;;;;;;5034966;28;20036;-74
2021/12/06 01:12:57;;;;;;;75.40;30.65;;;3.10;99.90;;;;;;5051946;28;20040;-73
2021/12/06 01:15:23;;;;;;;76.75;29.85;;;3.10;99.90;;;;;;5052180;28;20025;-73
2021/12/06 01:17:49;;;;;;;74.05;29.52;;;3.10;99.90;;;;;;5052250;28;20074;-73
2021/12/06 01:20:21;;;;;;;68.47;29.67;;;3.00;99.90;;;;;;5052489;28;20029;-73
2021/12/06 01:22:55;;;;;;;66.03;28.13;;;3.10;99.90;;;;;;5034160;28;20120;-74
2021/12/06 01:31:05;;;;;;;73.10;29.10;;;3.10;99.90;;;;;;5037364;28;20028;-73
2021/12/06 01:41:40;;;;;;;74.82;27.92;;;3.10;99.90;;;;;;5051833;28;20029;-73
2021/12/06 01:44:16;;;;;;;63.80;27.75;;;3.10;99.90;;;;;;5034036;28;20025;-71
2021/12/06 01:46:48;;;;;;;66.30;27.05;;;4.00;99.90;;;;;;5051032;28;20486;-70
2021/12/06 01:49:15;;;;;;;59.13;26.90;;;3.10;99.90;;;;;;5052261;28;20477;-72
2021/12/06 01:51:42;;;;;;;61.42;24.77;;;3.00;99.90;;;;;;5051781;28;20025;-72
2021/12/06 01:54:09;;;;;;;62.40;25.00;;;3.00;99.90;;;;;;5033345;28;20702;-73
2021/12/06 01:56:35;;;;;;;50.63;23.10;;;3.00;99.90;;;;;;5050553;28;20033;-72
2021/12/06 01:59:02;;;;;;;53.00;24.10;;;2.90;99.90;;;;;;5052073;28;20017;-73
2021/12/06 02:01:28;;;;;;;58.90;23.65;;;2.80;99.90;;;;;;5051442;28;20021;-71
2021/12/06 02:03:53;;;;;;;52.05;23.55;;;2.80;99.90;;;;;;5050996;28;20086;-73
2021/12/06 02:06:19;;;;;;;53.42;25.17;;;2.80;99.90;;;;;;5051122;28;20032;-73
2021/12/06 02:08:45;;;;;;;54.95;23.08;;;2.70;99.90;;;;;;5051355;28;20565;-74
2021/12/06 02:11:11;;;;;;;56.45;23.77;;;2.40;99.90;;;;;;5051939;28;20426;-72
2021/12/06 02:13:48;;;;;;;55.30;23.25;;;2.70;99.90;;;;;;5050776;28;20024;-73
2021/12/06 02:16:15;;;;;;;53.00;22.80;;;2.70;99.90;;;;;;5051634;28;20497;-73
2021/12/06 02:18:49;;;;;;;58.90;24.88;;;2.50;99.90;;;;;;5051246;28;20497;-73
2021/12/06 02:21:27;;;;;;;61.33;25.02;;;2.50;99.90;;;;;;5033917;28;20029;-70
2021/12/06 02:23:53;;;;;;;61.20;25.20;;;2.40;99.90;;;;;;5050407;28;20031;-73
2021/12/06 02:26:20;;;;;;;54.45;23.80;;;2.30;99.90;;;;;;5051746;28;20031;-74
2021/12/06 02:28:46;;;;;;;51.53;24.30;;;2.10;99.90;;;;;;5050976;28;20025;-73
2021/12/06 02:31:12;;;;;;;62.92;25.92;;;2.00;99.90;;;;;;5051057;28;20518;-73
2021/12/06 02:33:38;;;;;;;57.83;25.67;;;1.90;99.90;;;;;;5050557;28;20490;-74
2021/12/06 02:36:05;;;;;;;61.50;26.13;;;1.80;99.90;;;;;;5051386;28;20032;-73
2021/12/06 02:38:31;;;;;;;57.78;27.52;;;1.70;99.90;;;;;;5051265;28;20028;-74
2021/12/06 02:40:57;;;;;;;65.53;27.98;;;1.60;99.90;;;;;;5033420;28;20487;-73
2021/12/06 02:43:23;;;;;;;68.03;29.40;;;;;;;;;;5050377;28;20025;-73
2021/12/06 02:45:49;;;;;;;68.55;28.63;;;1.60;99.90;;;;;;5033292;28;20029;-73
2021/12/06 02:48:15;;;;;;;74.15;30.55;;;1.60;99.90;;;;;;5051046;28;20513;-73
2021/12/06 02:50:53;;;;;;;77.47;29.73;;;1.70;99.90;;;;;;5050928;28;20029;-73
2021/12/06 02:53:21;;;;;;;83.65;30.92;;;1.70;99.90;;;;;;5050875;28;20549;-73
2021/12/06 02:55:54;;;;;;;72.90;29.02;;;1.70;99.90;;;;;;5049484;28;20075;-72
2021/12/06 03:01:08;;;;;;;76.90;30.98;;;1.40;99.90;;;;;;5055074;28;20032;-73
2021/12/06 03:03:34;;;;;;;80.90;33.28;;;1.60;99.90;;;;;;5054243;28;20025;-74
2021/12/06 03:06:01;;;;;;;81.35;33.35;;;1.60;99.90;;;;;;5055285;28;20064;-73
2021/12/06 03:08:33;;;;;;;81.03;32.22;;;1.60;99.90;;;;;;5054903;28;20433;-73
2021/12/06 03:10:59;;;;;;;82.78;32.90;;;1.60;99.90;;;;;;5055145;28;20025;-73
2021/12/06 03:13:25;;;;;;;78.43;32.63;;;1.60;99.90;;;;;;5054027;28;20017;-74
2021/12/06 03:15:50;;;;;;;75.30;32.67;;;1.60;99.90;;;;;;5054828;28;20491;-73
2021/12/06 03:18:16;;;;;;;77.03;32.05;;;1.50;99.90;;;;;;5054634;28;20020;-73
2021/12/06 03:20:41;;;;;;;81.10;33.17;;;1.60;99.90;;;;;;5054979;28;20060;-73
2021/12/06 03:23:07;;;;;;;79.65;32.30;;;1.50;99.90;;;;;;5053984;28;20517;-73
2021/12/06 03:25:32;;;;;;;79.53;32.35;;;1.50;99.90;;;;;;5054378;28;20033;-74
2021/12/06 03:28:00;;;;;;;82.30;32.58;;;1.60;99.90;;;;;;5054569;28;20033;-74
2021/12/06 03:30:26;;;;;;;91.07;34.83;;;1.60;99.90;;;;;;5054166;28;20037;-73
2021/12/06 03:32:52;;;;;;;82.60;33.67;;;;;;;;;;5053413;28;20083;-73
2021/12/06 03:35:17;;;;;;;71.53;31.30;;;1.60;99.90;;;;;;5053339;28;20037;-71
2021/12/06 03:37:43;;;;;;;74.57;32.65;;;1.70;99.90;;;;;;5054652;28;20544;-72
2021/12/06 03:40:10;;;;;;;77.60;31.88;;;1.80;99.90;;;;;;5054263;28;20029;-72
2021/12/06 03:42:36;;;;;;;79.82;32.75;;;1.90;99.90;;;;;;5053852;28;20092;-71
2021/12/06 03:45:05;;;;;;;78.03;31.38;;;2.00;99.90;;;;;;5053518;28;20040;-71
2021/12/06 03:47:31;;;;;;;77.88;31.27;;;2.00;99.90;;;;;;5054138;28;20108;-71
2021/12/06 03:49:58;;;;;;;76.85;32.58;;;2.10;99.90;;;;;;5053826;28;20025;-71
2021/12/06 03:52:26;;;;;;;79.72;32.88;;;2.10;99.90;;;;;;5053951;28;20021;-73
2021/12/06 03:54:52;;;;;;;83.75;32.38;;;2.20;99.90;;;;;;5053718;28;20021;-72
2021/12/06 03:57:19;;;;;;;77.20;32.10;;;2.20;99.90;;;;;;5053837;28;20032;-72
2021/12/06 03:59:45;;;;;;;81.72;32.72;;;2.20;99.90;;;;;;5053627;28;20065;-72
2021/12/06 04:02:11;;;;;;;70.13;31.65;;;2.20;99.90;;;;;;5053336;28;20025;-72
2021/12/06 04:04:38;;;;;;;82.97;32.15;;;2.20;99.90;;;;;;5053921;28;20083;-71
2021/12/06 04:07:04;;;;;;;76.40;31.63;;;2.20;99.90;;;;;;5054096;28;20036;-71
2021/12/06 04:09:30;;;;;;;77.55;33.25;;;2.20;99.90;;;;;;5053379;28;20040;-71
2021/12/06 04:11:55;;;;;;;73.70;32.10;;;2.20;99.90;;;;;;5053159;28;20422;-71
2021/12/06 04:14:21;;;;;;;86.93;33.42;;;2.20;99.90;;;;;;5053847;28;20090;-72
2021/12/06 04:16:47;;;;;;;77.28;34.20;;;2.30;99.90;;;;;;5054179;28;20071;-72
2021/12/06 04:19:13;;;;;;;79.72;32.55;;;2.20;99.90;;;;;;5053872;28;20025;-71
2021/12/06 04:21:41;;;;;;;79.97;33.45;;;3.00;99.90;;;;;;5054199;28;20033;-70
2021/12/06 04:24:07;;;;;;;79.88;31.50;;;2.10;99.90;;;;;;5053090;28;20025;-73
2021/12/06 04:26:32;;;;;;;82.35;32.38;;;2.10;99.90;;;;;;5053971;28;20482;-71
2021/12/06 04:29:01;;;;;;;75.20;31.25;;;2.20;99.90;;;;;;5053119;28;20033;-73
2021/12/06 04:31:38;;;;;;;86.55;34.10;;;2.40;99.90;;;;;;5052927;28;20402;-71
2021/12/06 04:34:03;;;;;;;77.43;31.48;;;2.70;99.90;;;;;;5051728;28;20032;-73
2021/12/06 04:36:29;;;;;;;77.70;33.22;;;2.20;99.90;;;;;;5053334;28;20114;-72
2021/12/06 04:38:55;;;;;;;71.95;29.80;;;2.30;99.90;;;;;;5052904;28;20078;-72
2021/12/06 04:41:20;;;;;;;69.45;30.02;;;2.40;99.90;;;;;;5053295;28;20025;-72
2021/12/06 04:43:47;;;;;;;80.03;31.35;;;2.40;99.90;;;;;;5052268;28;20028;-70
2021/12/06 04:46:13;;;;;;;76.18;32.85;;;2.30;99.90;;;;;;5052975;28;20387;-72
2021/12/06 04:48:39;;;;;;;84.97;33.13;;;3.70;99.90;;;;;;5052905;28;20054;-72
2021/12/06 04:51:05;;;;;;;79.53;33.13;;;2.40;99.90;;;;;;5034633;28;20324;-72
2021/12/06 04:53:36;;;;;;;78.18;31.05;;;2.40;99.90;;;;;;5052565;28;20087;-72
2021/12/06 04:56:26;;;;;;;74.70;30.73;;;2.40;99.90;;;;;;5035085;28;20033;-72
2021/12/06 04:59:04;;;;;;;81.93;31.10;;;2.30;99.90;;;;;;5052649;28;20029;-72
2021/12/06 05:01:33;;;;;;;77.88;31.52;;;2.30;99.90;;;;;;5052789;28;20020;-72
2021/12/06 05:04:06;;;;;;;75.97;30.67;;;2.30;99.90;;;;;;5052479;28;20063;-71
2021/12/06 05:06:35;;;;;;;73.22;31.50;;;2.30;99.90;;;;;;5052447;28;20047;-70
2021/12/06 05:09:10;;;;;;;74.07;30.15;;;2.30;99.90;;;;;;5052667;28;20017;-73
2021/12/06 05:11:36;;;;;;;81.43;32.47;;;2.30;99.90;;;;;;5052278;28;20021;-73
2021/12/06 05:14:02;;;;;;;74.60;30.92;;;2.40;99.90;;;;;;5052053;28;20049;-72
2021/12/06 05:16:29;;;;;;;79.97;29.88;;;2.50;99.90;;;;;;5045923;28;20034;-72
2021/12/06 05:18:54;;;;;;;71.10;29.92;;;2.60;99.90;;;;;;5052530;28;20025;-72
2021/12/06 05:21:20;;;;;;;71.47;31.65;;;2.60;99.90;;;;;;5051697;28;20387;-72
2021/12/06 05:23:46;;;;;;;73.88;29.92;;;2.70;99.90;;;;;;5033523;28;20025;-72
2021/12/06 05:26:12;;;;;;;75.97;31.33;;;2.60;99.90;;;;;;5052710;28;20555;-71
2021/12/06 05:28:43;;;;;;;75.65;29.92;;;2.50;99.90;;;;;;5051886;28;20033;-72
2021/12/06 05:31:19;;;;;;;85.88;32.22;;;2.30;99.90;;;;;;5052313;28;20025;-69
2021/12/06 05:33:50;;;;;;;72.53;32.00;;;2.70;99.90;;;;;;5051663;28;20032;-72
2021/12/06 05:36:16;;;;;;;75.57;31.90;;;2.60;99.90;;;;;;5051622;28;20372;-73
2021/12/06 05:38:43;;;;;;;76.75;31.92;;;2.40;99.90;;;;;;5052289;28;20029;-71
2021/12/06 05:41:08;;;;;;;71.97;29.90;;;2.40;99.90;;;;;;5051759;28;20408;-72
2021/12/06 05:43:34;;;;;;;75.97;30.48;;;3.20;99.90;;;;;;5050982;28;20035;-72
2021/12/06 05:46:01;;;;;;;82.95;32.35;;;2.20;99.90;;;;;;5051688;28;20037;-71
2021/12/06 05:48:27;;;;;;;69.55;30.48;;;2.40;99.90;;;;;;5052431;28;20437;-70
2021/12/06 05:50:53;;;;;;;77.95;30.35;;;2.40;99.90;;;;;;5051800;28;20477;-72
2021/12/06 05:53:21;;;;;;;69.60;30.65;;;2.40;99.90;;;;;;5051079;28;20033;-72
2021/12/06 05:55:47;;;;;;;79.13;29.00;;;2.50;99.90;;;;;;5051580;28;20033;-73
2021/12/06 05:58:16;;;;;;;72.78;31.25;;;2.40;99.90;;;;;;5037431;28;20034;-72
2021/12/06 06:00:42;;;;;;;72.97;30.83;;;2.40;99.90;;;;;;5031912;28;20083;-71
2021/12/06 06:03:09;;;;;;;73.10;30.17;;;2.40;99.90;;;;;;5045973;28;20032;-71
2021/12/06 06:05:36;;;;;;;76.40;31.05;;;2.50;99.90;;;;;;5051616;28;20032;-71
2021/12/06 06:08:03;;;;;;;73.47;28.52;;;2.40;99.90;;;;;;5051043;28;20044;-72
2021/12/06 06:10:31;;;;;;;72.68;29.85;;;2.20;99.90;;;;;;5051664;28;20108;-69
2021/12/06 06:12:57;;;;;;;77.03;30.13;;;;;;;;;;5050488;28;20029;-70
2021/12/06 06:15:23;;;;;;;71.95;29.50;;;2.40;99.90;;;;;;5051673;28;20021;-70
2021/12/06 06:17:48;;;;;;;77.85;31.92;;;2.40;99.90;;;;;;5051325;28;20399;-72
2021/12/06 06:20:22;;;;;;;74.82;30.08;;;2.40;99.90;;;;;;5051336;28;20490;-73
2021/12/06 06:25:16;;;;;;;85.05;31.00;;;2.40;99.90;;;;;;4989978;28;20047;-72
2021/12/06 06:27:43;;;;;;;77.97;30.58;;;2.40;99.90;;;;;;4993006;28;20077;-72
2021/12/06 06:30:09;;;;;;;83.15;31.13;;;2.40;99.90;;;;;;4992175;28;20064;-73
2021/12/06 06:32:35;;;;;;;75.40;29.95;;;2.30;99.90;;;;;;4993101;28;20101;-71
2021/12/06 06:35:01;;;;;;;78.70;31.35;;;2.40;99.90;;;;;;4991270;28;20061;-72
2021/12/06 06:37:27;;;;;;;76.80;31.58;;;2.20;99.90;;;;;;4992000;28;20037;-72
2021/12/06 06:39:52;;;;;;;76.18;31.30;;;2.30;99.90;;;;;;4991625;28;20030;-71
2021/12/06 06:42:22;;;;;;;89.30;35.00;;;2.40;99.90;;;;;;4991671;28;20022;-70
2021/12/06 06:44:52;;;;;;;79.03;32.58;;;2.30;99.90;;;;;;4985530;28;20109;-71
2021/12/06 06:47:18;;;;;;;80.85;32.05;;;2.50;99.90;;;;;;4992366;28;20112;-71
2021/12/06 06:49:44;;;;;;;70.05;30.23;;;2.40;99.90;;;;;;4991332;28;20027;-73
2021/12/06 06:52:10;;;;;;;72.80;30.48;;;2.30;99.90;;;;;;4991163;28;20093;-71
2021/12/06 06:54:36;;;;;;;71.32;30.00;;;2.30;99.90;;;;;;4300363;28;10000559;-70
2021/12/06 06:57:03;;;;;;;79.53;30.42;;;2.30;99.90;;;;;;4987869;28;20038;-71
2021/12/06 06:59:28;;;;;;;76.82;30.30;;;2.40;99.90;;;;;;4988658;28;20038;-73
2021/12/06 07:01:54;;;;;;;72.85;30.40;;;2.40;99.90;;;;;;4988007;28;20053;-73
2021/12/06 07:04:20;;;;;;;79.30;31.08;;;2.50;99.90;;;;;;4986997;28;20472;-73
2021/12/06 07:06:46;;;;;;;73.45;29.92;;;;;;;;;;4988027;28;20386;-73
2021/12/06 07:09:12;;;;;;;70.18;30.38;;;2.50;99.90;;;;;;4988126;28;20029;-73
2021/12/06 07:11:38;;;;;;;72.70;29.20;;;;;;;;;;4987781;28;20038;-72
2021/12/06 07:14:04;;;;;;;80.13;29.98;;;2.50;99.90;;;;;;4986762;28;20026;-72
2021/12/06 07:16:30;;;;;;;76.93;32.13;;;;;;;;;;4988572;28;20256;-71
2021/12/06 07:18:57;;;;;;;79.07;30.30;;;3.20;99.90;;;;;;4988929;28;20048;-71
2021/12/06 07:21:23;;;;;;;85.78;31.85;;;2.70;99.90;;;;;;4988678;28;20022;-73
2021/12/06 07:23:49;;;;;;;79.80;29.98;;;2.90;99.90;;;;;;4995904;28;20403;-71
2021/12/06 07:26:18;;;;;;;69.90;30.13;;;2.80;99.90;;;;;;5023342;28;20032;-72
2021/12/06 07:28:46;;;;;;;71.72;30.10;;;3.00;99.90;;;;;;4991793;28;20034;-73
2021/12/06 07:31:14;;;;;;;81.50;29.95;;;2.90;99.90;;;;;;5008915;28;20038;-73
2021/12/06 07:33:41;;;;;;;67.80;30.52;;;2.80;99.90;;;;;;5009931;28;20057;-73
2021/12/06 07:36:07;;;;;;;72.70;28.92;;;2.80;99.90;;;;;;5010522;28;20022;-73
2021/12/06 07:38:35;;;;;;;79.53;31.30;;;3.60;99.90;;;;;;5010599;28;20479;-73
2021/12/06 07:41:01;;;;;;;73.35;32.13;;;2.90;99.90;;;;;;4977690;28;20451;-70
2021/12/06 07:43:27;;;;;;;73.28;30.75;;;3.00;99.90;;;;;;5010718;28;20024;-70
2021/12/06 07:45:53;;;;;;;72.38;30.00;;;2.90;99.90;;;;;;5017183;28;20116;-74
2021/12/06 07:48:19;;;;;;;73.30;28.58;;;3.10;99.90;;;;;;5015672;28;20080;-72
2021/12/06 07:50:45;;;;;;;63.55;27.50;;;3.00;99.90;;;;;;5007856;28;20034;-71
2021/12/06 07:53:11;;;;;;;66.90;28.17;;;3.10;99.90;;;;;;5008125;28;20120;-73
2021/12/06 07:55:37;;;;;;;77.93;31.02;;;2.60;99.90;;;;;;5008018;28;20624;-70
2021/12/06 07:58:04;;;;;;;71.55;27.42;;;3.10;99.90;;;;;;5009241;28;20433;-71
2021/12/06 08:00:32;;;;;;;75.05;29.77;;;3.20;99.90;;;;;;4992244;28;20057;-72
2021/12/06 08:02:58;;;;;;;73.05;29.60;;;3.30;99.90;;;;;;4990654;28;20076;-71
2021/12/06 08:05:31;;;;;;;70.40;28.48;;;3.30;99.90;;;;;;5008445;28;20030;-73
2021/12/06 08:08:08;;;;;;;65.30;28.02;;;3.30;99.90;;;;;;5009478;28;20084;-71
2021/12/06 08:10:37;;;;;;;64.20;29.38;;;3.50;99.90;;;;;;5008698;28;20080;-72
2021/12/06 08:13:04;;;;;;;62.75;26.83;;;3.50;99.90;;;;;;4991120;28;20668;-70
2021/12/06 08:15:31;;;;;;;60.00;27.48;;;3.40;99.90;;;;;;4990472;28;20069;-70
2021/12/06 08:17:57;;;;;;;67.95;27.52;;;3.50;99.90;;;;;;5008787;28;20399;-73
2021/12/06 08:20:23;;;;;;;70.28;26.88;;;3.50;99.90;;;;;;5001428;28;20022;-72
2021/12/06 08:22:49;;;;;;;60.30;25.45;;;3.50;99.90;;;;;;4991380;28;20022;-72
2021/12/06 08:25:16;;;;;;;56.17;24.67;;;3.70;99.90;;;;;;5010855;28;20041;-72
2021/12/06 08:27:43;;;;;;;66.30;26.80;;;3.70;99.90;;;;;;5009123;28;20026;-72
2021/12/06 08:30:11;;;;;;;56.35;24.35;;;3.70;99.90;;;;;;5008220;28;20018;-72
2021/12/06 08:32:37;;;;;;;49.47;21.95;;;3.70;99.90;;;;;;5016392;28;20025;-71
2021/12/06 08:35:03;;;;;;;61.10;24.80;;;3.90;99.90;;;;;;5008256;28;20413;-71
2021/12/06 08:37:29;;;;;;;57.78;24.33;;;;;;;;;;5008979;28;20060;-73
2021/12/06 08:39:55;;;;;;;54.35;23.23;;;3.60;99.90;;;;;;5008784;28;20022;-71
2021/12/06 08:42:21;;;;;;;50.58;21.67;;;4.10;99.90;;;;;;5007944;28;20034;-71
2021/12/06 08:44:47;;;;;;;50.50;23.70;;;;;;;;;;5008334;28;20021;-72
2021/12/06 08:47:15;;;;;;;50.53;22.17;;;4.00;99.90;;;;;;4990557;28;20026;-73
2021/12/06 08:49:41;;;;;;;55.78;22.90;;;4.10;99.90;;;;;;5007635;28;20036;-72
2021/12/06 08:52:07;;;;;;;49.47;22.17;;;4.30;99.90;;;;;;5009039;28;20096;-71
2021/12/06 08:54:33;;;;;;;51.90;22.20;;;4.20;99.90;;;;;;5007209;28;20483;-71
2021/12/06 08:57:01;;;;;;;55.17;21.75;;;4.30;99.90;;;;;;5006817;28;20057;-73
2021/12/06 08:59:27;;;;;;;45.85;20.98;;;4.20;99.90;;;;;;5001121;28;20019;-71
2021/12/06 09:01:54;;;;;;;45.63;20.80;;;4.40;99.90;;;;;;5004740;28;20050;-74
2021/12/06 09:04:21;;;;;;;50.65;21.60;;;4.40;99.90;;;;;;5007959;28;20053;-74
2021/12/06 09:06:50;;;;;;;41.47;19.70;;;4.50;99.90;;;;;;5004322;28;20080;-75
2021/12/06 09:09:16;;;;;;;42.08;19.80;;;4.50;99.90;;;;;;4995815;28;20017;-72
2021/12/06 09:11:45;;;;;;;44.22;19.17;;;4.60;99.90;;;;;;5004345;28;20079;-75
2021/12/06 09:14:11;;;;;;;44.88;21.02;;;4.60;99.90;;;;;;5005702;28;20084;-76
2021/12/06 09:16:38;;;;;;;41.03;19.98;;;4.80;99.90;;;;;;4987835;28;20109;-73
2021/12/06 09:19:06;;;;;;;41.42;19.58;;;4.70;99.90;;;;;;5003691;28;20029;-75
2021/12/06 09:21:32;;;;;;;45.22;19.83;;;4.80;99.90;;;;;;5003527;28;20058;-73
2021/12/06 09:24:00;;;;;;;50.95;20.98;;;;;;;;;;5001862;28;20408;-73
2021/12/06 09:26:28;;;;;;;52.78;22.45;;;4.90;99.90;;;;;;5003611;28;20034;-73
2021/12/06 09:28:54;;;;;;;37.08;18.45;;;;;;;;;;4999298;28;20030;-74
2021/12/06 09:31:20;;;;;;;38.42;19.05;;;5.00;99.90;;;;;;5000454;28;20083;-72
2021/12/06 09:33:46;;;;;;;40.60;19.13;;;;;;;;;;5003107;28;20026;-72
2021/12/06 09:36:13;;;;;;;42.83;18.55;;;;;;;;;;4986879;28;20072;-72
2021/12/06 09:38:41;;;;;;;47.10;20.45;;;5.10;99.90;;;;;;5002574;28;20026;-74
2021/12/06 09:41:11;;;;;;;41.15;20.15;;;5.30;99.90;;;;;;4995180;28;20026;-74
2021/12/06 09:43:40;;;;;;;44.25;20.67;;;5.30;99.90;;;;;;5018364;28;20014;-75
2021/12/06 09:46:10;;;;;;;52.90;20.45;;;5.30;99.90;;;;;;5004496;28;20033;-74
2021/12/06 09:48:37;;;;;;;36.10;19.98;;;4.90;99.90;;;;;;5007594;28;20030;-73
2021/12/06 09:51:09;;;;;;;38.22;19.08;;;5.40;99.90;;;;;;5002472;28;20018;-73
2021/12/06 09:53:37;;;;;;;54.03;21.10;;;5.20;99.90;;;;;;4985760;28;20126;-74
2021/12/06 09:56:08;;;;;;;42.45;19.95;;;5.50;99.90;;;;;;5020704;28;20037;-75
2021/12/06 09:58:34;;;;;;;48.63;20.63;;;;;;;;;;4997534;28;20073;-77
2021/12/06 10:01:11;;;;;;;40.33;19.63;;;5.50;99.90;;;;;;4998755;28;20029;-74
2021/12/06 10:03:37;;;;;;;41.83;18.88;;;;;;;;;;5003915;28;20026;-75
2021/12/06 10:06:04;;;;;;;40.00;19.15;;;5.50;99.90;;;;;;5006605;28;20038;-73
2021/12/06 10:08:39;;;;;;;33.10;18.67;;;5.40;99.90;;;;;;5010848;28;20053;-74
2021/12/06 10:11:06;;;;;;;39.55;18.52;;;5.30;99.90;;;;;;4994417;28;20033;-74
2021/12/06 10:13:34;;;;;;;40.47;18.65;;;5.20;99.90;;;;;;5002122;28;20033;-74
2021/12/06 10:16:00;;;;;;;35.88;18.35;;;4.90;99.90;;;;;;5004329;28;20554;-71
2021/12/06 10:18:26;;;;;;;49.33;19.58;;;5.80;99.90;;;;;;5000518;28;20037;-73
2021/12/06 10:20:52;;;;;;;38.67;19.10;;;5.20;99.90;;;;;;5001623;28;20105;-77
2021/12/06 10:23:19;;;;;;;38.22;18.25;;;5.30;99.90;;;;;;4997293;28;20018;-72
2021/12/06 10:25:51;;;;;;;35.13;16.88;;;5.10;99.90;;;;;;5001997;28;20145;-74
2021/12/06 10:28:19;;;;;;;40.95;18.52;;;5.40;99.90;;;;;;4983228;28;20045;-73
2021/12/06 10:30:52;;;;;;;48.40;18.95;;;5.20;99.90;;;;;;5003111;28;20484;-73
2021/12/06 10:33:20;;;;;;;33.75;16.83;;;5.20;99.90;;;;;;5002646;28;20025;-73
2021/12/06 10:35:51;;;;;;;35.00;16.58;;;5.20;99.90;;;;;;5000301;28;20026;-73
2021/12/06 10:38:32;;;;;;;34.38;17.15;;;5.30;99.90;;;;;;5001712;28;20033;-74
2021/12/06 10:41:04;;;;;;;29.10;16.42;;;5.30;99.90;;;;;;4998644;28;20018;-74
2021/12/06 10:43:30;;;;;;;34.13;17.95;;;;;;;;;;4989797;28;20022;-74
2021/12/06 10:45:57;;;;;;;37.63;19.27;;;5.40;99.90;;;;;;5003720;28;20034;-75
2021/12/06 10:48:26;;;;;;;39.53;18.38;;;5.30;99.90;;;;;;4984501;28;20100;-72
2021/12/06 10:50:51;;;;;;;41.75;19.50;;;4.70;99.90;;;;;;5002268;28;20014;-74
2021/12/06 10:53:24;;;;;;;41.60;16.90;;;5.50;99.90;;;;;;4997254;28;20476;-74
2021/12/06 10:55:53;;;;;;;37.63;17.23;;;5.00;99.90;;;;;;4999981;28;20022;-74
2021/12/06 10:58:24;;;;;;;32.08;15.93;;;5.50;99.90;;;;;;5001092;28;20034;-74
2021/12/06 11:01:05;;;;;;;34.53;18.05;;;5.50;99.90;;;;;;4967980;28;20447;-72
2021/12/06 11:03:51;;;;;;;28.02;15.15;;;5.50;99.90;;;;;;4992577;28;20022;-73
2021/12/06 11:06:25;;;;;;;33.47;16.40;;;5.50;99.90;;;;;;4999284;28;20022;-74
2021/12/06 11:08:55;;;;;;;34.23;16.40;;;5.60;99.90;;;;;;5013157;28;20097;-72
2021/12/06 11:11:29;;;;;;;24.15;15.23;;;5.70;99.90;;;;;;5003430;28;20300;-74
2021/12/06 11:14:01;;;;;;;29.07;15.97;;;5.60;99.90;;;;;;4996053;28;20127;-72
2021/12/06 11:16:29;;;;;;;32.03;17.25;;;5.70;99.90;;;;;;4999739;28;20053;-75
2021/12/06 11:19:03;;;;;;;31.65;17.30;;;5.70;99.90;;;;;;5003214;28;20030;-73
2021/12/06 11:21:33;;;;;;;35.43;17.57;;;5.70;99.90;;;;;;4996022;28;20096;-71
2021/12/06 11:24:11;;;;;;;31.80;16.27;;;5.70;99.90;;;;;;5004016;28;20284;-74
2021/12/06 11:26:40;;;;;;;28.30;16.20;;;5.80;99.90;;;;;;5004551;28;20061;-74
2021/12/06 11:29:21;;;;;;;44.47;17.52;;;5.80;99.90;;;;;;5004982;28;20025;-73
2021/12/06 11:31:57;;;;;;;33.55;16.90;;;5.80;99.90;;;;;;5004861;28;20018;-73
2021/12/06 11:34:32;;;;;;;40.08;18.00;;;5.70;99.90;;;;;;5003378;28;20497;-74
2021/12/06 11:36:58;;;;;;;36.17;16.73;;;5.70;99.90;;;;;;4977002;28;20239;-72
2021/12/06 11:39:25;;;;;;;34.55;17.67;;;5.70;99.90;;;;;;5006211;28;20680;-73
2021/12/06 11:41:55;;;;;;;37.17;17.48;;;5.70;99.90;;;;;;4992698;28;20495;-74
2021/12/06 11:44:34;;;;;;;25.40;15.45;;;5.80;99.90;;;;;;4993586;28;20533;-72
2021/12/06 11:47:04;;;;;;;37.10;16.67;;;5.80;99.90;;;;;;5002310;28;20108;-72
2021/12/06 11:49:39;;;;;;;32.92;16.40;;;5.90;99.90;;;;;;5005847;28;20021;-73
2021/12/06 11:52:07;;;;;;;34.63;15.68;;;5.80;99.90;;;;;;4987225;28;20026;-73
2021/12/06 11:54:58;;;;;;;36.97;18.42;;;5.60;99.90;;;;;;5004847;28;20021;-72
2021/12/06 11:57:30;;;;;;;22.92;15.32;;;5.60;99.90;;;;;;5003106;28;20038;-73
2021/12/06 12:00:15;;;;;;;36.75;16.20;;;5.60;99.90;;;;;;5004657;28;20045;-74
2021/12/06 12:02:44;;;;;;;35.65;16.08;;;5.60;99.90;;;;;;4993893;28;20021;-77
2021/12/06 12:05:26;;;;;;;35.22;16.88;;;5.60;99.90;;;;;;5004482;28;20502;-75
2021/12/06 12:07:54;;;;;;;27.30;14.73;;;5.70;99.90;;;;;;5009482;28;20026;-74
2021/12/06 12:10:47;;;;;;;25.52;13.75;;;5.70;99.90;;;;;;5010056;28;20048;-72
2021/12/06 12:13:36;;;;;;;22.63;14.50;;;5.60;99.90;;;;;;4994321;28;20129;-72
2021/12/06 12:16:07;;;;;;;24.60;13.57;;;5.60;99.90;;;;;;5000751;28;20443;-72
2021/12/06 12:18:36;;;;;;;27.17;13.88;;;7.10;99.90;;;;;;4997072;28;20014;-72
2021/12/06 12:21:02;;;;;;;22.77;14.00;;;5.60;99.90;;;;;;5003888;28;20018;-73
2021/12/06 12:23:32;;;;;;;27.45;15.63;;;5.60;99.90;;;;;;5020170;28;20156;-71
2021/12/06 12:26:09;;;;;;;20.40;13.18;;;5.60;99.90;;;;;;5004506;28;20119;-70
2021/12/06 12:29:11;;;;;;;26.52;13.78;;;5.50;99.90;;;;;;4975201;28;10000939;-71
2021/12/06 12:31:38;;;;;;;25.70;13.43;;;5.60;99.90;;;;;;5058465;22;20293;-72
2021/12/06 12:34:04;;;;;;;28.10;15.18;;;5.60;99.90;;;;;;5025260;28;20517;-75
2021/12/06 12:36:34;;;;;;;27.45;13.95;;;5.60;99.90;;;;;;5022788;28;20438;-72
2021/12/06 12:39:01;;;;;;;31.15;14.35;;;5.50;99.90;;;;;;5029231;28;20364;-71
2021/12/06 12:41:33;;;;;;;32.33;15.65;;;5.50;99.90;;;;;;5031279;28;20230;-71
2021/12/06 12:44:07;;;;;;;32.08;14.73;;;5.40;99.90;;;;;;5029617;28;20112;-72
2021/12/06 12:46:35;;;;;;;29.00;15.27;;;5.40;99.90;;;;;;5021535;28;20029;-72
2021/12/06 12:49:04;;;;;;;24.08;13.98;;;5.40;99.90;;;;;;5023414;28;20040;-71
2021/12/06 12:51:35;;;;;;;23.98;13.77;;;5.40;99.90;;;;;;5025226;28;20112;-72
2021/12/06 12:54:15;;;;;;;21.35;14.27;;;5.40;99.90;;;;;;5013776;28;20065;-72
2021/12/06 12:56:56;;;;;;;33.97;13.93;;;5.40;99.90;;;;;;5009498;28;20026;-73
2021/12/06 12:59:42;;;;;;;19.42;13.15;;;5.40;99.90;;;;;;5026130;28;20040;-72
2021/12/06 13:02:22;;;;;;;30.25;14.07;;;5.30;99.90;;;;;;5014100;28;20036;-71
2021/12/06 13:04:59;;;;;;;20.20;14.43;;;5.30;99.90;;;;;;5030549;28;20037;-72
2021/12/06 13:07:34;;;;;;;29.83;13.40;;;5.30;99.90;;;;;;5023961;28;20368;-73